createdAt,value
2018-05-26T00:01:29.190Z,13.77
2018-05-26T00:03:56.668Z,14.02
2018-05-26T00:06:24.916Z,14.55
2018-05-26T00:08:52.406Z,15.13
2018-05-26T00:11:20.658Z,13.50
2018-05-26T00:13:48.213Z,14.65
2018-05-26T00:16:15.687Z,14.55
2018-05-26T00:18:43.161Z,14.60
2018-05-26T00:21:11.381Z,14.38
2018-05-26T00:23:38.861Z,14.82
2018-05-26T00:26:06.357Z,15.25
2018-05-26T00:28:34.169Z,15.15
2018-05-26T00:31:01.645Z,15.43
2018-05-26T00:33:29.107Z,14.55
2018-05-26T00:35:56.608Z,16.75
2018-05-26T00:38:24.074Z,16.17
2018-05-26T00:40:51.599Z,17.05
2018-05-26T00:43:19.868Z,16.17
2018-05-26T00:45:48.118Z,17.50
2018-05-26T00:48:16.176Z,16.20
2018-05-26T00:50:43.686Z,16.50
2018-05-26T00:53:11.924Z,17.00
2018-05-26T00:55:39.388Z,17.50
2018-05-26T00:58:06.873Z,16.10
2018-05-26T01:00:35.104Z,17.25
2018-05-26T01:03:02.605Z,16.90
2018-05-26T01:05:30.850Z,16.75
2018-05-26T01:07:58.347Z,16.60
2018-05-26T01:10:25.810Z,16.33
2018-05-26T01:12:53.290Z,16.17
2018-05-26T01:15:20.761Z,17.77
2018-05-26T01:17:48.231Z,17.45
2018-05-26T01:20:15.706Z,16.87
2018-05-26T01:22:43.162Z,16.65
2018-05-26T01:25:10.671Z,17.08
2018-05-26T01:27:38.130Z,16.50
2018-05-26T01:30:05.774Z,16.80
2018-05-26T01:32:33.279Z,18.00
2018-05-26T01:35:01.773Z,17.58
2018-05-26T01:37:29.252Z,18.50
2018-05-26T01:39:57.478Z,17.40
2018-05-26T01:42:24.979Z,17.65
2018-05-26T01:44:53.231Z,17.25
2018-05-26T01:47:20.693Z,17.80
2018-05-26T01:49:48.167Z,17.42
2018-05-26T01:52:16.433Z,17.37
2018-05-26T01:54:43.927Z,17.02
2018-05-26T01:57:11.398Z,16.45
2018-05-26T01:59:38.897Z,17.87
2018-05-26T02:02:06.362Z,17.15
2018-05-26T02:04:33.832Z,16.23
2018-05-26T02:07:02.083Z,16.23
2018-05-26T02:09:29.561Z,15.35
2018-05-26T02:11:57.798Z,16.40
2018-05-26T02:14:25.269Z,15.32
2018-05-26T02:16:52.766Z,15.20
2018-05-26T02:19:20.997Z,15.48
2018-05-26T02:21:48.460Z,14.87
2018-05-26T02:24:15.964Z,15.00
2018-05-26T02:26:43.441Z,15.73
2018-05-26T02:29:10.911Z,15.38
2018-05-26T02:31:38.390Z,15.25
2018-05-26T02:34:05.876Z,15.63
2018-05-26T02:36:34.120Z,14.38
2018-05-26T02:39:01.625Z,15.65
2018-05-26T02:41:29.098Z,15.65
2018-05-26T02:43:56.621Z,15.23
2018-05-26T02:46:24.876Z,15.30
2018-05-26T02:48:52.380Z,14.82
2018-05-26T02:51:19.846Z,15.38
2018-05-26T02:53:47.349Z,14.35
2018-05-26T02:56:14.825Z,14.98
2018-05-26T02:58:43.066Z,15.35
2018-05-26T03:01:10.549Z,14.85
2018-05-26T03:03:38.016Z,15.52
2018-05-26T03:06:11.891Z,14.82
2018-05-26T03:08:44.961Z,14.35
2018-05-26T03:11:18.083Z,14.70
2018-05-26T03:13:51.213Z,14.10
2018-05-26T03:16:22.516Z,15.25
2018-05-26T03:18:50.024Z,13.93
2018-05-26T03:21:17.531Z,13.65
2018-05-26T03:23:45.065Z,13.95
2018-05-26T03:26:12.534Z,14.23
2018-05-26T03:28:40.000Z,14.65
2018-05-26T03:31:07.499Z,14.43
2018-05-26T03:33:35.753Z,13.05
2018-05-26T03:36:03.262Z,14.13
2018-05-26T03:38:30.766Z,14.07
2018-05-26T03:40:58.232Z,14.27
2018-05-26T03:43:26.851Z,13.52
2018-05-26T03:45:54.360Z,13.35
2018-05-26T03:48:21.847Z,13.70
2018-05-26T03:50:49.316Z,13.57
2018-05-26T03:53:16.797Z,12.37
2018-05-26T03:55:56.153Z,13.30
2018-05-26T03:58:35.470Z,13.10
2018-05-26T04:01:02.953Z,13.62
2018-05-26T04:03:30.425Z,12.95
2018-05-26T04:05:57.975Z,12.80
2018-05-26T04:08:25.471Z,13.62
2018-05-26T04:10:52.933Z,13.05
2018-05-26T04:13:20.394Z,13.38
2018-05-26T04:15:47.873Z,12.77
2018-05-26T04:18:15.369Z,12.75
2018-05-26T04:20:42.837Z,12.30
2018-05-26T04:23:11.079Z,12.13
2018-05-26T04:25:38.636Z,12.30
2018-05-26T04:28:06.061Z,12.63
2018-05-26T04:30:33.542Z,12.68
2018-05-26T04:33:01.039Z,12.10
2018-05-26T04:35:28.575Z,12.80
2018-05-26T04:37:56.008Z,12.65
2018-05-26T04:40:23.521Z,12.15
2018-05-26T04:42:51.770Z,12.85
2018-05-26T04:45:19.318Z,12.00
2018-05-26T04:47:46.796Z,11.95
2018-05-26T04:50:14.271Z,11.70
2018-05-26T04:52:42.515Z,12.27
2018-05-26T04:55:09.992Z,12.57
2018-05-26T04:57:38.238Z,12.88
2018-05-26T05:00:05.755Z,12.63
2018-05-26T05:02:33.227Z,11.88
2018-05-26T05:05:00.749Z,12.30
2018-05-26T05:07:28.977Z,11.95
2018-05-26T05:09:56.441Z,12.15
2018-05-26T05:12:23.918Z,11.88
2018-05-26T05:14:51.402Z,12.48
2018-05-26T05:17:18.886Z,12.57
2018-05-26T05:19:46.375Z,12.30
2018-05-26T05:22:14.017Z,13.43
2018-05-26T05:24:41.489Z,13.20
2018-05-26T05:27:09.055Z,13.73
2018-05-26T05:29:36.525Z,12.40
2018-05-26T05:32:03.994Z,12.37
2018-05-26T05:34:32.237Z,12.40
2018-05-26T05:36:59.719Z,12.00
2018-05-26T05:39:27.204Z,12.77
2018-05-26T05:41:55.434Z,11.52
2018-05-26T05:44:22.925Z,12.52
2018-05-26T05:46:51.145Z,13.10
2018-05-26T05:49:18.690Z,13.15
2018-05-26T05:51:46.178Z,12.23
2018-05-26T05:54:13.756Z,12.15
2018-05-26T05:56:41.478Z,13.15
2018-05-26T05:59:08.977Z,13.35
2018-05-26T06:01:36.792Z,13.10
2018-05-26T06:04:04.322Z,12.73
2018-05-26T06:06:32.594Z,13.30
2018-05-26T06:09:00.072Z,13.57
2018-05-26T06:11:27.547Z,14.05
2018-05-26T06:13:55.028Z,14.95
2018-05-26T06:16:22.503Z,13.35
2018-05-26T06:18:49.988Z,13.60
2018-05-26T06:21:18.247Z,14.05
2018-05-26T06:23:45.749Z,15.07
2018-05-26T06:26:13.225Z,14.23
2018-05-26T06:28:40.719Z,14.55
2018-05-26T06:31:08.218Z,14.68
2018-05-26T06:33:35.715Z,14.57
2018-05-26T06:36:03.185Z,15.70
2018-05-26T06:38:30.687Z,15.45
2018-05-26T06:40:58.159Z,13.98
2018-05-26T06:43:25.641Z,15.00
2018-05-26T06:45:53.127Z,13.90
2018-05-26T06:48:20.654Z,14.70
2018-05-26T06:50:48.157Z,15.50
2018-05-26T06:53:16.422Z,15.02
2018-05-26T06:55:44.682Z,15.40
2018-05-26T06:58:12.188Z,15.20
2018-05-26T07:00:39.653Z,14.23
2018-05-26T07:03:07.148Z,15.35
2018-05-26T07:05:34.625Z,13.48
2018-05-26T07:08:02.891Z,14.27
2018-05-26T07:10:30.357Z,14.30
2018-05-26T07:12:58.641Z,13.60
2018-05-26T07:15:26.874Z,14.38
2018-05-26T07:17:54.371Z,13.57
2018-05-26T07:20:22.649Z,15.02
2018-05-26T07:22:50.915Z,12.85
2018-05-26T07:25:18.403Z,14.63
2018-05-26T07:27:45.966Z,14.60
2018-05-26T07:30:14.205Z,13.77
2018-05-26T07:32:42.506Z,14.23
2018-05-26T07:35:09.981Z,13.55
2018-05-26T07:37:37.449Z,13.02
2018-05-26T07:40:04.935Z,13.80
2018-05-26T07:42:32.434Z,13.20
2018-05-26T07:44:59.921Z,13.52
2018-05-26T07:47:27.432Z,13.82
2018-05-26T07:49:54.901Z,13.73
2018-05-26T07:52:23.188Z,15.00
2018-05-26T07:54:50.661Z,14.38
2018-05-26T07:57:18.164Z,13.73
2018-05-26T07:59:45.632Z,13.85
2018-05-26T08:02:13.918Z,14.20
2018-05-26T08:04:42.146Z,13.50
2018-05-26T08:07:09.623Z,12.80
2018-05-26T08:09:37.107Z,13.35
2018-05-26T08:12:05.348Z,12.02
2018-05-26T08:14:32.825Z,10.93
2018-05-26T08:17:00.334Z,10.98
2018-05-26T08:19:27.836Z,10.07
2018-05-26T08:21:55.332Z,10.85
2018-05-26T08:24:22.791Z,10.55
2018-05-26T08:26:50.818Z,11.00
2018-05-26T08:29:18.277Z,10.95
2018-05-26T08:31:45.763Z,10.60
2018-05-26T08:34:14.025Z,11.48
2018-05-26T08:36:41.482Z,10.68
2018-05-26T08:39:08.979Z,11.32
2018-05-26T08:41:36.455Z,11.05
2018-05-26T08:44:03.943Z,10.95
2018-05-26T08:46:32.206Z,10.13
2018-05-26T08:48:59.672Z,10.88
2018-05-26T08:51:27.384Z,11.52
2018-05-26T08:53:55.762Z,10.77
2018-05-26T08:56:23.259Z,9.65
2018-05-26T08:58:50.755Z,10.98
2018-05-26T09:01:19.033Z,12.00
2018-05-26T09:03:47.294Z,15.57
2018-05-26T09:06:14.811Z,9.55
2018-05-26T09:08:42.288Z,9.57
2018-05-26T09:11:09.837Z,9.75
2018-05-26T09:13:37.309Z,11.12
2018-05-26T09:16:04.778Z,9.98
2018-05-26T09:18:32.277Z,9.60
2018-05-26T09:20:59.806Z,9.10
2018-05-26T09:23:28.050Z,9.52
2018-05-26T09:25:55.549Z,9.77
2018-05-26T09:28:23.782Z,9.10
2018-05-26T09:30:51.250Z,9.13
2018-05-26T09:33:18.719Z,7.82
2018-05-26T09:35:46.206Z,7.45
2018-05-26T09:38:13.666Z,7.50
2018-05-26T09:40:41.145Z,7.82
2018-05-26T09:43:08.642Z,8.25
2018-05-26T09:45:36.151Z,7.55
2018-05-26T09:48:03.650Z,6.53
2018-05-26T09:50:31.127Z,6.15
2018-05-26T09:52:58.605Z,5.60
2018-05-26T09:55:26.080Z,6.87
2018-05-26T09:57:53.563Z,6.47
2018-05-26T10:00:21.020Z,5.65
2018-05-26T10:02:48.520Z,5.80
2018-05-26T10:05:16.761Z,5.50
2018-05-26T10:07:44.218Z,5.53
2018-05-26T10:10:11.713Z,5.50
2018-05-26T10:12:39.953Z,5.40
2018-05-26T10:15:08.321Z,5.70
2018-05-26T10:17:35.787Z,4.95
2018-05-26T10:20:03.286Z,4.25
2018-05-26T10:22:31.545Z,4.57
2018-05-26T10:24:59.023Z,5.15
2018-05-26T10:27:27.271Z,4.93
2018-05-26T10:29:54.746Z,4.62
2018-05-26T10:32:22.981Z,3.62
2018-05-26T10:34:50.447Z,3.72
2018-05-26T10:37:17.923Z,3.90
2018-05-26T10:39:46.151Z,4.20
2018-05-26T10:42:13.654Z,3.87
2018-05-26T10:44:41.121Z,4.40
2018-05-26T10:47:09.366Z,4.57
2018-05-26T10:49:36.866Z,4.68
2018-05-26T10:52:05.105Z,4.07
2018-05-26T10:54:32.594Z,4.05
2018-05-26T10:57:00.850Z,4.15
2018-05-26T10:59:28.334Z,3.58
2018-05-26T11:01:55.806Z,3.97
2018-05-26T11:04:23.399Z,3.90
2018-05-26T11:06:50.902Z,3.55
2018-05-26T11:09:19.151Z,4.40
2018-05-26T11:11:46.633Z,3.80
2018-05-26T11:14:14.908Z,3.70
2018-05-26T11:16:43.183Z,3.03
2018-05-26T11:19:11.479Z,3.55
2018-05-26T11:21:38.933Z,3.90
2018-05-26T11:24:06.650Z,3.75
2018-05-26T11:26:33.936Z,3.72
2018-05-26T11:29:02.158Z,3.78
2018-05-26T11:31:29.622Z,4.05
2018-05-26T11:33:57.125Z,3.58
2018-05-26T11:36:25.406Z,3.45
2018-05-26T11:38:53.658Z,3.35
2018-05-26T11:41:22.066Z,3.40
2018-05-26T11:43:49.548Z,3.33
2018-05-26T11:46:17.026Z,3.20
2018-05-26T11:48:44.492Z,3.50
2018-05-26T11:51:11.986Z,3.80
2018-05-26T11:53:40.230Z,3.97
2018-05-26T11:56:07.703Z,3.55
2018-05-26T11:58:35.168Z,3.60
2018-05-26T12:01:03.421Z,3.47
2018-05-26T12:03:30.914Z,3.72
2018-05-26T12:05:59.238Z,3.85
2018-05-26T12:08:26.714Z,3.17
2018-05-26T12:10:54.215Z,3.40
2018-05-26T12:13:22.504Z,3.95
2018-05-26T12:15:49.974Z,4.43
2018-05-26T12:18:17.440Z,3.65
2018-05-26T12:20:44.925Z,3.20
2018-05-26T12:23:12.385Z,3.70
2018-05-26T12:25:39.905Z,3.80
2018-05-26T12:28:07.378Z,4.03
2018-05-26T12:30:34.846Z,3.78
2018-05-26T12:33:02.349Z,4.03
2018-05-26T12:35:30.417Z,4.40
2018-05-26T12:37:57.889Z,4.00
2018-05-26T12:40:25.358Z,4.95
2018-05-26T12:42:52.838Z,3.90
2018-05-26T12:45:20.310Z,4.70
2018-05-26T12:47:47.774Z,4.05
2018-05-26T12:50:15.234Z,4.53
2018-05-26T12:52:43.479Z,4.10
2018-05-26T12:55:10.957Z,4.75
2018-05-26T12:57:38.419Z,4.70
2018-05-26T13:00:05.985Z,4.40
2018-05-26T13:02:34.242Z,4.43
2018-05-26T13:05:01.699Z,4.45
2018-05-26T13:07:29.162Z,3.72
2018-05-26T13:09:56.644Z,4.28
2018-05-26T13:12:24.890Z,3.50
2018-05-26T13:14:52.405Z,3.95
2018-05-26T13:17:19.862Z,3.80
2018-05-26T13:19:47.350Z,3.97
2018-05-26T13:22:14.799Z,3.90
2018-05-26T13:24:42.291Z,4.03
2018-05-26T13:27:09.811Z,3.92
2018-05-26T13:29:37.278Z,4.12
2018-05-26T13:32:04.757Z,3.90
2018-05-26T13:34:32.230Z,3.50
2018-05-26T13:37:00.457Z,3.92
2018-05-26T13:39:27.935Z,4.00
2018-05-26T13:41:55.403Z,3.70
2018-05-26T13:44:22.887Z,4.03
2018-05-26T13:46:51.112Z,3.50
2018-05-26T13:49:18.685Z,3.47
2018-05-26T13:51:46.050Z,3.60
2018-05-26T13:54:13.662Z,3.47
2018-05-26T13:56:41.159Z,3.12
2018-05-26T13:59:08.611Z,3.30
2018-05-26T14:01:36.096Z,3.40
2018-05-26T14:04:04.351Z,3.65
2018-05-26T14:06:32.902Z,3.17
2018-05-26T14:09:00.390Z,3.20
2018-05-26T14:11:27.870Z,2.97
2018-05-26T14:13:56.101Z,3.75
2018-05-26T14:16:23.586Z,3.55
2018-05-26T14:18:51.048Z,2.80
2018-05-26T14:21:18.507Z,3.25
2018-05-26T14:23:45.982Z,3.28
2018-05-26T14:26:14.215Z,3.00
2018-05-26T14:28:41.698Z,3.42
2018-05-26T14:31:09.166Z,3.00
2018-05-26T14:33:37.377Z,3.28
2018-05-26T14:36:04.876Z,2.90
2018-05-26T14:38:32.346Z,3.70
2018-05-26T14:41:00.581Z,3.60
2018-05-26T14:43:28.078Z,3.40
2018-05-26T14:45:55.533Z,3.55
2018-05-26T14:48:23.802Z,2.97
2018-05-26T14:50:51.332Z,3.10
2018-05-26T14:53:18.801Z,3.12
2018-05-26T14:55:46.279Z,3.25
2018-05-26T14:58:13.777Z,2.92
2018-05-26T15:00:41.987Z,3.42
2018-05-26T15:03:09.437Z,3.40
2018-05-26T15:05:37.683Z,3.80
2018-05-26T15:08:05.156Z,3.97
2018-05-26T15:10:32.656Z,3.25
2018-05-26T15:13:00.171Z,6.37
2018-05-26T15:15:27.718Z,3.58
2018-05-26T15:17:55.221Z,2.85
2018-05-26T15:20:22.690Z,3.53
2018-05-26T15:22:50.168Z,2.87
2018-05-26T15:25:17.677Z,3.62
2018-05-26T15:27:45.154Z,3.05
2018-05-26T15:30:12.622Z,3.33
2018-05-26T15:32:40.145Z,3.33
2018-05-26T15:35:07.613Z,3.30
2018-05-26T15:37:35.083Z,3.62
2018-05-26T15:40:02.551Z,3.60
2018-05-26T15:42:30.050Z,3.35
2018-05-26T15:44:57.547Z,3.65
2018-05-26T15:47:25.018Z,2.97
2018-05-26T15:49:52.636Z,3.50
2018-05-26T15:52:20.097Z,3.42
2018-05-26T15:54:47.561Z,3.60
2018-05-26T15:57:15.027Z,3.58
2018-05-26T15:59:42.520Z,3.30
2018-05-26T16:02:10.747Z,3.30
2018-05-26T16:04:38.265Z,3.28
2018-05-26T16:07:06.505Z,4.87
2018-05-26T16:09:33.993Z,3.35
2018-05-26T16:12:02.242Z,3.20
2018-05-26T16:14:29.702Z,3.80
2018-05-26T16:16:57.180Z,3.35
2018-05-26T16:19:25.450Z,3.67
2018-05-26T16:21:52.898Z,3.60
2018-05-26T16:24:20.374Z,3.78
2018-05-26T16:26:48.597Z,3.08
2018-05-26T16:29:16.061Z,3.50
2018-05-26T16:31:43.548Z,3.15
2018-05-26T16:34:11.044Z,3.10
2018-05-26T16:36:38.522Z,3.50
2018-05-26T16:39:05.995Z,3.60
2018-05-26T16:41:33.501Z,3.90
2018-05-26T16:44:01.006Z,4.00
2018-05-26T16:46:28.466Z,4.18
2018-05-26T16:48:55.920Z,3.60
2018-05-26T16:51:23.405Z,4.10
2018-05-26T16:53:50.875Z,4.00
2018-05-26T16:56:19.122Z,3.72
2018-05-26T16:58:46.621Z,3.85
2018-05-26T17:01:14.845Z,3.40
2018-05-26T17:03:42.301Z,3.60
2018-05-26T17:06:09.790Z,3.37
2018-05-26T17:08:37.284Z,3.65
2018-05-26T17:11:04.778Z,3.72
2018-05-26T17:13:32.273Z,3.53
2018-05-26T17:16:00.533Z,4.00
2018-05-26T17:18:28.007Z,4.00
2018-05-26T17:20:56.245Z,3.92
2018-05-26T17:23:23.794Z,3.60
2018-05-26T17:25:51.270Z,3.58
2018-05-26T17:28:18.750Z,3.42
2018-05-26T17:30:47.042Z,3.78
2018-05-26T17:33:15.278Z,3.37
2018-05-26T17:35:42.765Z,3.95
2018-05-26T17:38:11.001Z,3.92
2018-05-26T17:40:38.524Z,4.20
2018-05-26T17:43:05.998Z,3.53
2018-05-26T17:45:33.471Z,3.50
2018-05-26T17:48:00.943Z,3.37
2018-05-26T17:50:28.431Z,3.35
2018-05-26T17:52:56.672Z,3.65
2018-05-26T17:55:24.168Z,3.72
2018-05-26T17:57:51.637Z,3.37
2018-05-26T18:00:19.124Z,3.58
2018-05-26T18:02:46.586Z,3.87
2018-05-26T18:05:14.072Z,3.40
2018-05-26T18:07:41.542Z,3.75
2018-05-26T18:10:09.766Z,3.85
2018-05-26T18:12:37.254Z,3.83
2018-05-26T18:15:04.738Z,3.33
2018-05-26T18:17:32.972Z,4.30
2018-05-26T18:20:00.473Z,3.80
2018-05-26T18:22:28.712Z,3.85
2018-05-26T18:24:56.225Z,3.80
2018-05-26T18:27:23.695Z,4.05
2018-05-26T18:29:51.169Z,4.00
2018-05-26T18:32:18.656Z,3.83
2018-05-26T18:34:46.124Z,3.92
2018-05-26T18:37:14.384Z,4.30
2018-05-26T18:39:41.854Z,3.87
2018-05-26T18:42:09.330Z,3.83
2018-05-26T18:44:36.791Z,3.80
2018-05-26T18:47:04.250Z,3.58
2018-05-26T18:49:32.525Z,3.70
2018-05-26T18:52:00.006Z,3.78
2018-05-26T18:54:27.478Z,4.03
2018-05-26T18:56:54.961Z,3.72
2018-05-26T18:59:22.449Z,3.97
2018-05-26T19:01:49.918Z,3.70
2018-05-26T19:04:17.402Z,3.70
2018-05-26T19:06:44.880Z,3.90
2018-05-26T19:09:12.464Z,3.90
2018-05-26T19:11:40.738Z,4.10
2018-05-26T19:14:08.966Z,5.18
2018-05-26T19:16:36.759Z,4.57
2018-05-26T19:19:04.709Z,4.78
2018-05-26T19:21:32.179Z,4.18
2018-05-26T19:23:59.692Z,3.80
2018-05-26T19:26:27.985Z,4.40
2018-05-26T19:28:55.433Z,4.80
2018-05-26T19:31:22.920Z,5.70
2018-05-26T19:33:50.400Z,4.78
2018-05-26T19:36:17.878Z,4.30
2018-05-26T19:38:46.138Z,4.35
2018-05-26T19:41:13.609Z,4.37
2018-05-26T19:43:42.178Z,4.22
2018-05-26T19:46:10.437Z,4.00
2018-05-26T19:48:37.925Z,3.87
2018-05-26T19:51:06.146Z,5.85
2018-05-26T19:53:33.630Z,5.10
2018-05-26T19:56:01.098Z,5.30
2018-05-26T19:58:28.573Z,4.47
2018-05-26T20:00:56.819Z,4.60
2018-05-26T20:03:24.287Z,3.45
2018-05-26T20:05:51.773Z,3.97
2018-05-26T20:08:19.243Z,4.22
2018-05-26T20:10:46.754Z,3.95
2018-05-26T20:13:14.258Z,4.10
2018-05-26T20:15:41.726Z,3.90
2018-05-26T20:18:09.185Z,4.55
2018-05-26T20:20:36.686Z,5.12
2018-05-26T20:23:04.181Z,4.15
2018-05-26T20:25:31.649Z,4.15
2018-05-26T20:27:59.113Z,4.32
2018-05-26T20:30:26.597Z,4.20
2018-05-26T20:32:54.058Z,4.72
2018-05-26T20:35:21.570Z,4.12
2018-05-26T20:37:49.110Z,4.50
2018-05-26T20:40:16.530Z,4.30
2018-05-26T20:42:44.782Z,4.35
2018-05-26T20:45:12.254Z,4.40
2018-05-26T20:47:39.732Z,4.60
2018-05-26T20:50:07.242Z,4.30
2018-05-26T20:52:34.699Z,4.35
2018-05-26T20:55:02.191Z,4.50
2018-05-26T20:57:29.657Z,16.50
2018-05-26T20:59:57.145Z,4.57
2018-05-26T21:02:25.383Z,4.25
2018-05-26T21:04:52.894Z,4.25
2018-05-26T21:07:20.372Z,5.03
2018-05-26T21:09:47.850Z,4.53
2018-05-26T21:12:15.317Z,4.75
2018-05-26T21:14:42.779Z,4.47
2018-05-26T21:17:10.238Z,4.80
2018-05-26T21:19:37.712Z,4.95
2018-05-26T21:22:05.963Z,4.70
2018-05-26T21:24:33.425Z,4.75
2018-05-26T21:27:00.893Z,4.50
2018-05-26T21:29:28.369Z,4.82
2018-05-26T21:31:57.181Z,5.45
2018-05-26T21:34:24.646Z,4.93
2018-05-26T21:36:52.134Z,5.20
2018-05-26T21:39:19.598Z,5.53
2018-05-26T21:41:47.070Z,5.20
2018-05-26T21:44:14.543Z,5.03
2018-05-26T21:46:42.775Z,5.07
2018-05-26T21:49:10.233Z,5.22
2018-05-26T21:51:37.713Z,5.78
2018-05-26T21:54:05.196Z,5.07
2018-05-26T21:56:32.733Z,5.22
2018-05-26T21:59:01.014Z,5.12
2018-05-26T22:01:29.245Z,5.20
2018-05-26T22:03:56.758Z,5.80
2018-05-26T22:06:24.224Z,5.57
2018-05-26T22:08:51.681Z,4.80
2018-05-26T22:11:19.163Z,5.40
2018-05-26T22:13:46.690Z,5.05
2018-05-26T22:16:14.926Z,5.00
2018-05-26T22:18:42.420Z,4.93
2018-05-26T22:21:10.653Z,5.07
2018-05-26T22:23:38.154Z,5.20
2018-05-26T22:26:06.430Z,5.65
2018-05-26T22:28:34.711Z,4.90
2018-05-26T22:31:02.223Z,5.28
2018-05-26T22:33:29.722Z,4.78
2018-05-26T22:35:57.957Z,5.28
2018-05-26T22:38:25.434Z,5.00
2018-05-26T22:40:52.908Z,5.65
2018-05-26T22:43:21.157Z,4.40
2018-05-26T22:45:48.695Z,4.75
2018-05-26T22:48:16.601Z,4.65
2018-05-26T22:50:44.829Z,3.97
2018-05-26T22:53:12.314Z,4.25
2018-05-26T22:55:39.809Z,3.97
2018-05-26T22:58:07.294Z,4.03
2018-05-26T23:00:34.765Z,3.95
2018-05-26T23:03:02.238Z,4.28
2018-05-26T23:05:29.716Z,4.12
2018-05-26T23:07:57.218Z,4.15
2018-05-26T23:10:24.686Z,5.00
2018-05-26T23:12:52.149Z,4.10
2018-05-26T23:15:19.654Z,3.80
2018-05-26T23:17:47.900Z,3.97
2018-05-26T23:20:15.460Z,4.15
2018-05-26T23:22:43.686Z,3.80
2018-05-26T23:25:11.174Z,4.25
2018-05-26T23:27:38.639Z,3.55
2018-05-26T23:30:06.138Z,4.25
2018-05-26T23:32:34.382Z,3.83
2018-05-26T23:35:01.859Z,3.87
2018-05-26T23:37:29.350Z,3.70
2018-05-26T23:39:56.810Z,3.90
2018-05-26T23:42:24.383Z,3.80
2018-05-26T23:44:52.058Z,4.03
2018-05-26T23:47:19.557Z,3.55
2018-05-26T23:49:47.837Z,3.30
2018-05-26T23:52:16.128Z,3.72
2018-05-26T23:54:44.372Z,3.97
2018-05-26T23:57:11.869Z,3.90
2018-05-26T23:59:39.366Z,3.67
